createdAt,value
2019-03-27T00:01:38.444Z,10.77
2019-03-27T00:04:06.659Z,8.13
2019-03-27T00:06:34.893Z,15.13
2019-03-27T00:09:03.973Z,8.80
2019-03-27T00:11:32.512Z,8.90
2019-03-27T00:14:01.090Z,9.83
2019-03-27T00:16:29.399Z,5.80
2019-03-27T00:18:57.759Z,11.43
2019-03-27T00:21:26.098Z,8.40
2019-03-27T00:23:54.013Z,11.43
2019-03-27T00:26:22.578Z,7.50
2019-03-27T00:28:51.481Z,9.43
2019-03-27T00:31:20.127Z,12.03
2019-03-27T00:33:48.350Z,4.90
2019-03-27T00:36:16.809Z,8.27
2019-03-27T00:38:44.752Z,9.43
2019-03-27T00:41:12.957Z,9.93
2019-03-27T00:43:41.187Z,6.80
2019-03-27T00:46:09.403Z,11.30
2019-03-27T00:48:37.982Z,10.43
2019-03-27T00:51:05.945Z,11.30
2019-03-27T00:53:34.179Z,6.70
2019-03-27T00:56:02.426Z,15.30
2019-03-27T00:58:30.671Z,6.17
2019-03-27T01:01:08.292Z,10.37
2019-03-27T01:03:36.231Z,10.80
2019-03-27T01:06:04.684Z,9.53
2019-03-27T01:08:32.993Z,8.47
2019-03-27T01:11:01.474Z,13.47
2019-03-27T01:13:29.762Z,9.13
2019-03-27T01:15:58.061Z,9.10
2019-03-27T01:18:26.339Z,10.67
2019-03-27T01:20:54.264Z,12.27
2019-03-27T01:23:22.556Z,10.83
2019-03-27T01:25:50.478Z,9.37
2019-03-27T01:28:18.420Z,13.13
2019-03-27T01:30:46.669Z,8.50
2019-03-27T01:33:15.326Z,9.70
2019-03-27T01:35:43.766Z,10.93
2019-03-27T01:38:12.223Z,10.43
2019-03-27T01:40:40.166Z,12.30
2019-03-27T01:43:08.085Z,12.00
2019-03-27T01:45:36.262Z,9.33
2019-03-27T01:48:04.861Z,9.63
2019-03-27T01:50:33.073Z,10.20
2019-03-27T01:53:00.992Z,9.50
2019-03-27T01:55:29.615Z,10.40
2019-03-27T01:57:57.532Z,9.03
2019-03-27T02:00:25.552Z,12.30
2019-03-27T02:02:54.018Z,8.07
2019-03-27T02:05:22.249Z,11.57
2019-03-27T02:07:50.814Z,11.33
2019-03-27T02:10:18.826Z,7.13
2019-03-27T02:12:47.162Z,8.17
2019-03-27T02:15:15.402Z,6.70
2019-03-27T02:17:43.685Z,13.87
2019-03-27T02:20:12.193Z,13.10
2019-03-27T02:22:40.421Z,10.83
2019-03-27T02:25:08.346Z,11.67
2019-03-27T02:27:36.382Z,11.50
2019-03-27T02:30:05.159Z,10.50
2019-03-27T02:32:33.787Z,12.97
2019-03-27T02:35:02.352Z,9.53
2019-03-27T02:37:30.618Z,12.00
2019-03-27T02:39:58.535Z,13.80
2019-03-27T02:42:26.782Z,13.00
2019-03-27T02:44:55.097Z,15.53
2019-03-27T02:47:23.345Z,15.33
2019-03-27T02:49:51.923Z,12.87
2019-03-27T02:52:19.837Z,12.07
2019-03-27T02:54:47.766Z,11.40
2019-03-27T02:57:16.408Z,11.30
2019-03-27T02:59:44.609Z,13.07
2019-03-27T03:02:13.378Z,17.93
2019-03-27T03:04:41.997Z,14.43
2019-03-27T03:07:10.999Z,15.77
2019-03-27T03:09:39.889Z,10.90
2019-03-27T03:12:08.138Z,13.83
2019-03-27T03:14:36.173Z,12.27
2019-03-27T03:17:04.418Z,11.90
2019-03-27T03:19:32.359Z,12.10
2019-03-27T03:22:00.839Z,13.33
2019-03-27T03:24:29.635Z,11.80
2019-03-27T03:26:57.866Z,15.50
2019-03-27T03:29:26.109Z,19.10
2019-03-27T03:31:54.486Z,11.53
2019-03-27T03:34:22.749Z,15.23
2019-03-27T03:36:51.437Z,14.23
2019-03-27T03:39:19.711Z,17.40
2019-03-27T03:41:47.666Z,14.40
2019-03-27T03:44:16.240Z,16.03
2019-03-27T03:46:58.799Z,15.53
2019-03-27T03:49:14.553Z,17.00
2019-03-27T03:51:43.139Z,20.13
2019-03-27T03:54:11.119Z,12.10
2019-03-27T03:56:40.822Z,17.13
2019-03-27T03:59:10.504Z,10.60
2019-03-27T04:01:40.411Z,10.53
2019-03-27T04:04:09.441Z,18.17
2019-03-27T04:06:37.347Z,12.80
2019-03-27T04:09:06.270Z,11.77
2019-03-27T04:11:35.186Z,13.83
2019-03-27T04:14:03.470Z,12.23
2019-03-27T04:16:31.382Z,10.23
2019-03-27T04:18:59.619Z,10.97
2019-03-27T04:21:27.525Z,11.03
2019-03-27T04:23:55.739Z,17.13
2019-03-27T04:26:24.023Z,10.87
2019-03-27T04:28:52.270Z,22.70
2019-03-27T04:31:20.451Z,16.30
2019-03-27T04:33:48.367Z,15.30
2019-03-27T04:36:16.291Z,15.33
2019-03-27T04:38:44.209Z,15.77
2019-03-27T04:41:12.734Z,11.83
2019-03-27T04:43:41.262Z,12.67
2019-03-27T04:46:10.165Z,15.33
2019-03-27T04:48:38.590Z,12.20
2019-03-27T04:51:06.552Z,17.63
2019-03-27T04:53:35.261Z,12.63
2019-03-27T04:56:03.460Z,10.13
2019-03-27T04:58:31.738Z,17.23
2019-03-27T05:00:59.966Z,15.63
2019-03-27T05:03:27.881Z,14.70
2019-03-27T05:05:56.106Z,11.90
2019-03-27T05:08:24.889Z,14.63
2019-03-27T05:10:52.801Z,13.47
2019-03-27T05:13:20.728Z,10.87
2019-03-27T05:15:49.126Z,13.10
2019-03-27T05:18:17.569Z,17.37
2019-03-27T05:20:45.801Z,19.87
2019-03-27T05:23:14.029Z,14.47
2019-03-27T05:25:42.774Z,21.90
2019-03-27T05:28:10.774Z,18.33
2019-03-27T05:30:39.680Z,15.40
2019-03-27T05:33:08.004Z,16.60
2019-03-27T05:35:36.310Z,15.53
2019-03-27T05:38:04.931Z,15.43
2019-03-27T05:40:33.854Z,18.23
2019-03-27T05:43:02.450Z,13.40
2019-03-27T05:45:30.368Z,14.23
2019-03-27T05:48:00.094Z,14.83
2019-03-27T05:50:28.250Z,16.70
2019-03-27T05:52:56.862Z,16.03
2019-03-27T05:55:26.632Z,13.87
2019-03-27T05:57:55.164Z,16.90
2019-03-27T06:00:23.719Z,18.10
2019-03-27T06:02:51.632Z,17.03
2019-03-27T06:05:19.809Z,15.20
2019-03-27T06:07:47.987Z,15.03
2019-03-27T06:10:16.620Z,16.50
2019-03-27T06:12:45.276Z,16.13
2019-03-27T06:15:13.630Z,16.87
2019-03-27T06:17:41.576Z,16.23
2019-03-27T06:20:09.522Z,13.30
2019-03-27T06:22:37.780Z,15.70
2019-03-27T06:25:07.748Z,22.07
2019-03-27T06:27:35.984Z,15.70
2019-03-27T06:30:04.492Z,17.33
2019-03-27T06:32:33.081Z,17.90
2019-03-27T06:35:01.356Z,16.30
2019-03-27T06:37:30.254Z,16.13
2019-03-27T06:39:58.184Z,20.23
2019-03-27T06:42:26.755Z,20.30
2019-03-27T06:44:55.703Z,22.70
2019-03-27T06:47:24.269Z,21.00
2019-03-27T06:49:52.755Z,17.87
2019-03-27T06:52:20.722Z,20.07
2019-03-27T06:54:48.976Z,22.83
2019-03-27T06:57:17.566Z,25.37
2019-03-27T06:59:45.789Z,19.20
2019-03-27T07:02:13.749Z,24.90
2019-03-27T07:04:42.025Z,24.70
2019-03-27T07:07:10.678Z,26.13
2019-03-27T07:09:38.645Z,19.33
2019-03-27T07:12:20.126Z,19.47
2019-03-27T07:14:37.642Z,26.00
2019-03-27T07:17:05.841Z,22.47
2019-03-27T07:19:34.026Z,27.03
2019-03-27T07:22:01.969Z,24.40
2019-03-27T07:24:30.212Z,22.60
2019-03-27T07:26:58.539Z,26.27
2019-03-27T07:29:26.463Z,27.90
2019-03-27T07:31:55.437Z,22.20
2019-03-27T07:34:23.373Z,23.50
2019-03-27T07:36:51.865Z,24.30
2019-03-27T07:39:20.054Z,32.50
2019-03-27T07:41:47.995Z,30.90
2019-03-27T07:44:15.931Z,38.33
2019-03-27T07:46:44.212Z,25.93
2019-03-27T07:49:13.027Z,31.60
2019-03-27T07:51:41.629Z,31.43
2019-03-27T07:54:09.858Z,32.90
2019-03-27T07:56:38.117Z,34.80
2019-03-27T07:59:06.328Z,38.40
2019-03-27T08:01:35.134Z,36.50
2019-03-27T08:04:03.566Z,32.67
2019-03-27T08:06:31.592Z,35.00
2019-03-27T08:09:00.463Z,38.37
2019-03-27T08:11:28.787Z,36.53
2019-03-27T08:13:57.152Z,36.43
2019-03-27T08:16:25.177Z,40.80
2019-03-27T08:19:06.626Z,39.83
2019-03-27T08:21:24.406Z,40.67
2019-03-27T08:23:52.738Z,38.17
2019-03-27T08:26:21.270Z,39.30
2019-03-27T08:28:49.645Z,50.30
2019-03-27T08:31:17.615Z,44.30
2019-03-27T08:33:46.387Z,48.57
2019-03-27T08:36:14.684Z,53.80
2019-03-27T08:38:42.957Z,55.40
2019-03-27T08:41:11.311Z,47.60
2019-03-27T08:43:39.872Z,53.87
2019-03-27T08:46:07.854Z,47.43
2019-03-27T08:48:39.017Z,48.33
2019-03-27T08:51:05.789Z,51.47
2019-03-27T08:53:33.705Z,51.30
2019-03-27T08:56:01.994Z,44.60
2019-03-27T08:58:30.608Z,42.70
2019-03-27T09:00:59.183Z,57.60
2019-03-27T09:03:27.116Z,58.20
2019-03-27T09:05:55.399Z,55.97
2019-03-27T09:08:24.009Z,53.33
2019-03-27T09:10:52.650Z,50.37
2019-03-27T09:13:21.178Z,52.53
2019-03-27T09:15:49.353Z,46.97
2019-03-27T09:18:17.582Z,62.10
2019-03-27T09:20:45.765Z,50.30
2019-03-27T09:23:14.098Z,44.47
2019-03-27T09:25:42.038Z,43.70
2019-03-27T09:28:10.472Z,53.80
2019-03-27T09:30:39.106Z,52.40
2019-03-27T09:33:07.061Z,51.17
2019-03-27T09:35:35.661Z,51.50
2019-03-27T09:38:03.916Z,44.63
2019-03-27T09:40:32.527Z,54.13
2019-03-27T09:43:00.840Z,45.90
2019-03-27T09:45:29.451Z,52.53
2019-03-27T09:47:57.712Z,56.73
2019-03-27T09:50:26.002Z,56.33
2019-03-27T09:52:53.926Z,41.83
2019-03-27T09:55:22.397Z,51.93
2019-03-27T09:57:50.701Z,57.33
2019-03-27T10:00:21.515Z,57.43
2019-03-27T10:02:49.733Z,55.30
2019-03-27T10:05:18.239Z,64.77
2019-03-27T10:07:46.224Z,61.37
2019-03-27T10:10:14.577Z,61.13
2019-03-27T10:12:43.500Z,54.40
2019-03-27T10:15:11.797Z,47.63
2019-03-27T10:17:40.192Z,52.90
2019-03-27T10:20:08.643Z,50.10
2019-03-27T10:22:36.833Z,45.70
2019-03-27T10:25:06.006Z,43.43
2019-03-27T10:27:34.607Z,60.07
2019-03-27T10:30:02.624Z,45.47
2019-03-27T10:32:30.558Z,54.53
2019-03-27T10:34:58.758Z,39.10
2019-03-27T10:37:26.958Z,40.40
2019-03-27T10:39:54.898Z,39.83
2019-03-27T10:42:23.271Z,43.20
2019-03-27T10:44:51.533Z,58.30
2019-03-27T10:47:20.257Z,49.00
2019-03-27T10:49:48.477Z,41.43
2019-03-27T10:52:16.800Z,37.80
2019-03-27T10:54:45.193Z,40.80
2019-03-27T10:57:13.497Z,39.00
2019-03-27T10:59:42.144Z,32.47
2019-03-27T11:02:10.071Z,41.13
2019-03-27T11:04:39.046Z,33.40
2019-03-27T11:07:07.631Z,31.50
2019-03-27T11:09:35.646Z,33.53
2019-03-27T11:12:03.666Z,38.13
2019-03-27T11:14:37.665Z,32.30
2019-03-27T11:17:01.833Z,39.70
2019-03-27T11:19:33.332Z,33.63
2019-03-27T11:22:00.349Z,36.40
2019-03-27T11:24:28.940Z,43.00
2019-03-27T11:26:57.174Z,28.13
2019-03-27T11:29:25.455Z,19.03
2019-03-27T11:31:53.411Z,32.00
2019-03-27T11:34:22.049Z,26.23
2019-03-27T11:36:50.701Z,19.93
2019-03-27T11:39:18.631Z,21.33
2019-03-27T11:41:47.189Z,18.80
2019-03-27T11:44:15.375Z,14.30
2019-03-27T11:46:43.318Z,15.43
2019-03-27T11:49:11.561Z,20.73
2019-03-27T11:51:39.525Z,19.70
2019-03-27T11:54:07.806Z,16.07
2019-03-27T11:56:36.321Z,17.13
2019-03-27T11:59:04.341Z,15.10
2019-03-27T12:01:40.531Z,18.87
2019-03-27T12:04:02.250Z,14.53
2019-03-27T12:06:31.078Z,22.03
2019-03-27T12:08:59.713Z,24.10
2019-03-27T12:11:27.659Z,28.33
2019-03-27T12:13:55.933Z,25.97
2019-03-27T12:16:24.193Z,35.33
2019-03-27T12:18:52.777Z,30.30
2019-03-27T12:21:21.049Z,26.47
2019-03-27T12:23:48.986Z,23.83
2019-03-27T12:26:17.627Z,24.07
2019-03-27T12:28:45.829Z,27.60
2019-03-27T12:31:14.037Z,24.70
2019-03-27T12:33:42.622Z,26.90
2019-03-27T12:36:11.146Z,34.50
2019-03-27T12:38:39.463Z,24.07
2019-03-27T12:41:08.133Z,25.97
2019-03-27T12:43:36.724Z,26.93
2019-03-27T12:46:05.338Z,28.30
2019-03-27T12:48:33.383Z,27.60
2019-03-27T12:51:12.211Z,22.10
2019-03-27T12:53:31.911Z,26.10
2019-03-27T12:56:00.350Z,24.40
2019-03-27T12:58:28.991Z,25.87
2019-03-27T13:00:57.862Z,24.83
2019-03-27T13:03:26.453Z,22.77
2019-03-27T13:05:54.749Z,23.20
2019-03-27T13:08:23.403Z,23.17
2019-03-27T13:10:51.823Z,24.50
2019-03-27T13:13:19.740Z,23.30
2019-03-27T13:15:47.890Z,23.90
2019-03-27T13:18:16.114Z,25.40
2019-03-27T13:20:44.041Z,22.87
2019-03-27T13:23:11.973Z,27.30
2019-03-27T13:25:40.276Z,22.13
2019-03-27T13:28:08.209Z,20.63
2019-03-27T13:30:36.431Z,23.40
2019-03-27T13:33:04.709Z,19.93
2019-03-27T13:35:32.973Z,23.33
2019-03-27T13:38:01.642Z,21.87
2019-03-27T13:40:29.570Z,23.23
2019-03-27T13:42:58.189Z,21.77
2019-03-27T13:45:26.356Z,20.57
2019-03-27T13:47:54.592Z,22.47
2019-03-27T13:50:23.043Z,21.10
2019-03-27T13:52:52.007Z,19.20
2019-03-27T13:55:19.924Z,29.43
2019-03-27T13:57:48.227Z,20.47
2019-03-27T14:00:16.890Z,25.90
2019-03-27T14:02:45.089Z,27.07
2019-03-27T14:05:13.873Z,20.77
2019-03-27T14:07:41.814Z,24.03
2019-03-27T14:10:09.834Z,19.77
2019-03-27T14:12:38.009Z,23.27
2019-03-27T14:15:06.774Z,16.43
2019-03-27T14:17:35.037Z,18.07
2019-03-27T14:20:03.649Z,15.63
2019-03-27T14:22:32.205Z,19.20
2019-03-27T14:25:01.213Z,15.40
2019-03-27T14:27:29.433Z,16.37
2019-03-27T14:29:57.649Z,16.47
2019-03-27T14:32:25.925Z,15.43
2019-03-27T14:34:54.179Z,16.10
2019-03-27T14:37:22.377Z,19.50
2019-03-27T14:39:50.321Z,17.27
2019-03-27T14:42:18.580Z,14.03
2019-03-27T14:44:47.110Z,14.10
2019-03-27T14:47:15.033Z,14.40
2019-03-27T14:49:43.623Z,21.97
2019-03-27T14:52:12.546Z,17.37
2019-03-27T14:54:41.234Z,20.50
2019-03-27T14:57:09.561Z,17.70
2019-03-27T14:59:37.468Z,20.87
2019-03-27T15:02:05.817Z,19.83
2019-03-27T15:04:34.792Z,15.03
2019-03-27T15:07:02.839Z,14.93
2019-03-27T15:09:31.364Z,13.40
2019-03-27T15:11:59.890Z,13.47
2019-03-27T15:14:28.475Z,14.40
2019-03-27T15:16:56.850Z,12.83
2019-03-27T15:19:24.789Z,17.40
2019-03-27T15:21:52.998Z,13.93
2019-03-27T15:24:21.633Z,12.87
2019-03-27T15:26:49.938Z,15.30
2019-03-27T15:29:18.213Z,13.90
2019-03-27T15:31:47.171Z,12.97
2019-03-27T15:34:16.053Z,13.33
2019-03-27T15:36:44.359Z,15.23
2019-03-27T15:39:12.584Z,12.70
2019-03-27T15:41:40.566Z,14.77
2019-03-27T15:44:09.225Z,15.43
2019-03-27T15:46:37.407Z,12.70
2019-03-27T15:49:06.205Z,14.27
2019-03-27T15:51:34.284Z,17.83
2019-03-27T15:54:02.846Z,21.97
2019-03-27T15:56:30.767Z,13.30
2019-03-27T15:58:59.246Z,14.90
2019-03-27T16:01:27.824Z,10.67
2019-03-27T16:03:56.421Z,10.73
2019-03-27T16:06:24.658Z,11.27
2019-03-27T16:08:52.877Z,17.33
2019-03-27T16:11:20.819Z,13.80
2019-03-27T16:13:49.118Z,12.97
2019-03-27T16:16:17.774Z,14.43
2019-03-27T16:18:45.721Z,16.70
2019-03-27T16:21:13.717Z,14.33
2019-03-27T16:23:41.973Z,15.53
2019-03-27T16:26:10.645Z,12.73
2019-03-27T16:28:39.237Z,15.70
2019-03-27T16:31:07.429Z,14.97
2019-03-27T16:33:35.677Z,18.40
2019-03-27T16:36:04.329Z,14.57
2019-03-27T16:38:32.947Z,17.60
2019-03-27T16:41:01.298Z,18.13
2019-03-27T16:43:29.859Z,17.40
2019-03-27T16:45:58.060Z,20.23
2019-03-27T16:48:26.786Z,15.47
2019-03-27T16:50:55.351Z,14.40
2019-03-27T16:53:23.554Z,13.30
2019-03-27T16:55:51.449Z,13.67
2019-03-27T16:58:20.043Z,14.40
2019-03-27T17:00:48.865Z,12.63
2019-03-27T17:03:17.110Z,13.77
2019-03-27T17:05:53.988Z,15.83
2019-03-27T17:08:14.996Z,13.80
2019-03-27T17:10:43.357Z,18.17
2019-03-27T17:13:11.335Z,15.13
2019-03-27T17:15:39.617Z,14.87
2019-03-27T17:18:08.197Z,15.83
2019-03-27T17:20:36.804Z,15.23
2019-03-27T17:23:17.395Z,17.57
2019-03-27T17:25:34.834Z,12.93
2019-03-27T17:28:03.485Z,16.67
2019-03-27T17:30:32.042Z,13.40
2019-03-27T17:33:00.502Z,12.90
2019-03-27T17:35:28.431Z,15.80
2019-03-27T17:37:56.388Z,10.73
2019-03-27T17:40:24.928Z,14.40
2019-03-27T17:42:53.552Z,11.93
2019-03-27T17:45:21.741Z,16.43
2019-03-27T17:47:50.152Z,10.33
2019-03-27T17:50:18.144Z,13.00
2019-03-27T17:52:46.586Z,14.43
2019-03-27T17:55:15.240Z,14.43
2019-03-27T17:57:43.781Z,12.67
2019-03-27T18:00:13.275Z,13.17
2019-03-27T18:02:41.816Z,14.57
2019-03-27T18:05:09.736Z,15.60
2019-03-27T18:07:37.679Z,14.30
2019-03-27T18:10:05.741Z,17.43
2019-03-27T18:12:34.290Z,13.10
2019-03-27T18:15:02.225Z,13.93
2019-03-27T18:17:30.421Z,12.00
2019-03-27T18:19:59.214Z,15.10
2019-03-27T18:22:27.785Z,13.60
2019-03-27T18:24:56.408Z,11.87
2019-03-27T18:27:24.630Z,13.13
2019-03-27T18:29:52.879Z,12.27
2019-03-27T18:32:21.224Z,14.43
2019-03-27T18:34:50.119Z,14.23
2019-03-27T18:37:18.695Z,12.30
2019-03-27T18:39:46.764Z,12.80
2019-03-27T18:42:15.328Z,12.40
2019-03-27T18:44:43.606Z,11.27
2019-03-27T18:47:11.816Z,14.50
2019-03-27T18:49:40.893Z,12.00
2019-03-27T18:52:09.802Z,9.73
2019-03-27T18:54:37.733Z,12.00
2019-03-27T18:57:06.252Z,11.90
2019-03-27T18:59:34.673Z,9.27
2019-03-27T19:02:03.078Z,15.60
2019-03-27T19:04:31.709Z,15.20
2019-03-27T19:07:00.395Z,10.00
2019-03-27T19:09:28.648Z,12.43
2019-03-27T19:11:56.669Z,13.23
2019-03-27T19:14:24.626Z,10.70
2019-03-27T19:16:52.553Z,8.37
2019-03-27T19:19:20.805Z,9.80
2019-03-27T19:21:49.072Z,10.47
2019-03-27T19:24:17.366Z,11.80
2019-03-27T19:26:45.565Z,11.73
2019-03-27T19:29:13.840Z,10.20
2019-03-27T19:31:41.742Z,15.87
2019-03-27T19:34:10.292Z,10.53
2019-03-27T19:36:38.561Z,8.40
2019-03-27T19:39:07.179Z,11.77
2019-03-27T19:41:36.218Z,14.47
2019-03-27T19:44:04.595Z,14.40
2019-03-27T19:46:33.310Z,12.77
2019-03-27T19:49:02.375Z,9.53
2019-03-27T19:51:30.658Z,13.43
2019-03-27T19:53:58.986Z,13.47
2019-03-27T19:56:27.246Z,15.33
2019-03-27T19:58:55.530Z,14.00
2019-03-27T20:01:23.792Z,16.30
2019-03-27T20:03:51.714Z,11.80
2019-03-27T20:06:20.659Z,11.80
2019-03-27T20:08:49.229Z,11.00
2019-03-27T20:11:18.225Z,9.90
2019-03-27T20:13:46.462Z,12.87
2019-03-27T20:16:15.086Z,11.10
2019-03-27T20:18:43.321Z,10.37
2019-03-27T20:21:12.086Z,11.07
2019-03-27T20:23:40.392Z,10.40
2019-03-27T20:26:08.884Z,8.07
2019-03-27T20:28:37.186Z,10.27
2019-03-27T20:31:05.853Z,8.03
2019-03-27T20:33:37.884Z,9.23
2019-03-27T20:36:05.184Z,9.27
2019-03-27T20:38:33.869Z,10.70
2019-03-27T20:41:02.129Z,10.70
2019-03-27T20:43:30.649Z,14.40
2019-03-27T20:45:59.298Z,13.20
2019-03-27T20:48:27.264Z,11.30
2019-03-27T20:50:55.528Z,16.00
2019-03-27T20:53:23.841Z,15.30
2019-03-27T20:55:52.546Z,7.60
2019-03-27T20:58:21.243Z,12.97
2019-03-27T21:00:49.587Z,10.50
2019-03-27T21:03:17.506Z,8.70
2019-03-27T21:05:45.741Z,8.87
2019-03-27T21:08:13.976Z,10.70
2019-03-27T21:10:41.939Z,10.00
2019-03-27T21:13:10.624Z,8.70
2019-03-27T21:15:38.951Z,8.83
2019-03-27T21:18:08.264Z,8.87
2019-03-27T21:20:36.826Z,10.17
2019-03-27T21:23:04.998Z,9.27
2019-03-27T21:25:33.557Z,8.03
2019-03-27T21:28:01.813Z,8.33
2019-03-27T21:30:30.445Z,10.90
2019-03-27T21:32:58.918Z,8.33
2019-03-27T21:35:27.229Z,14.23
2019-03-27T21:37:55.844Z,8.17
2019-03-27T21:40:23.775Z,11.77
2019-03-27T21:42:51.742Z,10.43
2019-03-27T21:45:20.259Z,8.40
2019-03-27T21:47:48.557Z,11.40
2019-03-27T21:50:16.863Z,11.07
2019-03-27T21:52:45.162Z,10.37
2019-03-27T21:55:22.458Z,10.90
2019-03-27T21:57:43.594Z,8.10
2019-03-27T22:00:11.724Z,10.87
2019-03-27T22:02:40.688Z,10.50
2019-03-27T22:05:09.690Z,16.33
2019-03-27T22:07:37.682Z,12.30
2019-03-27T22:10:06.445Z,12.33
2019-03-27T22:12:37.990Z,13.63
2019-03-27T22:15:05.494Z,11.90
2019-03-27T22:17:33.727Z,15.07
2019-03-27T22:20:02.319Z,13.00
2019-03-27T22:22:31.106Z,12.57
2019-03-27T22:24:59.026Z,21.07
2019-03-27T22:27:27.256Z,16.67
2019-03-27T22:29:55.639Z,16.90
2019-03-27T22:32:23.980Z,14.30
2019-03-27T22:34:52.739Z,14.40
2019-03-27T22:37:21.494Z,13.60
2019-03-27T22:39:50.076Z,14.10
2019-03-27T22:42:18.931Z,13.13
2019-03-27T22:44:47.178Z,13.90
2019-03-27T22:47:15.894Z,16.50
2019-03-27T22:49:44.099Z,16.90
2019-03-27T22:52:12.786Z,17.00
2019-03-27T22:54:41.058Z,18.13
2019-03-27T22:57:09.749Z,15.23
2019-03-27T22:59:38.227Z,13.77
2019-03-27T23:02:06.445Z,17.10
2019-03-27T23:04:35.104Z,17.73
2019-03-27T23:07:03.952Z,15.20
2019-03-27T23:09:32.470Z,13.07
2019-03-27T23:12:00.806Z,17.40
2019-03-27T23:14:29.100Z,14.17
2019-03-27T23:16:57.695Z,15.60
2019-03-27T23:19:28.643Z,13.13
2019-03-27T23:21:56.921Z,20.90
2019-03-27T23:24:25.199Z,19.40
2019-03-27T23:26:53.751Z,16.83
2019-03-27T23:29:21.952Z,17.27
2019-03-27T23:31:50.229Z,13.70
2019-03-27T23:34:18.501Z,14.40
2019-03-27T23:36:46.804Z,20.07
2019-03-27T23:39:15.534Z,18.10
2019-03-27T23:41:47.990Z,16.03
2019-03-27T23:44:16.258Z,17.03
2019-03-27T23:46:44.904Z,14.50
2019-03-27T23:49:13.160Z,15.33
2019-03-27T23:51:41.610Z,15.40
2019-03-27T23:54:09.589Z,16.43
2019-03-27T23:56:38.213Z,16.27
2019-03-27T23:59:06.515Z,18.97
